sensor_id;sensor_type;location;lat;lon;timestamp;temperature;humidity
38480;DHT22;62333;51.980;5.934;2023-01-30T00:01:25;6.90;94.00
38480;DHT22;62333;51.980;5.934;2023-01-30T00:03:51;6.90;94.00
38480;DHT22;62333;51.980;5.934;2023-01-30T00:06:17;6.90;94.10
38480;DHT22;62333;51.980;5.934;2023-01-30T00:08:43;6.90;94.10
38480;DHT22;62333;51.980;5.934;2023-01-30T00:11:10;6.90;94.10
38480;DHT22;62333;51.980;5.934;2023-01-30T00:13:37;6.90;94.30
38480;DHT22;62333;51.980;5.934;2023-01-30T00:16:03;6.90;94.30
38480;DHT22;62333;51.980;5.934;2023-01-30T00:18:30;6.90;94.40
38480;DHT22;62333;51.980;5.934;2023-01-30T00:20:57;6.90;94.40
38480;DHT22;62333;51.980;5.934;2023-01-30T00:23:24;7.00;94.40
38480;DHT22;62333;51.980;5.934;2023-01-30T00:25:50;7.00;94.40
38480;DHT22;62333;51.980;5.934;2023-01-30T00:28:16;7.00;94.40
38480;DHT22;62333;51.980;5.934;2023-01-30T00:30:41;7.00;94.40
38480;DHT22;62333;51.980;5.934;2023-01-30T00:33:08;7.00;94.50
38480;DHT22;62333;51.980;5.934;2023-01-30T00:35:34;7.00;94.50
38480;DHT22;62333;51.980;5.934;2023-01-30T00:38:00;7.00;94.50
38480;DHT22;62333;51.980;5.934;2023-01-30T00:40:27;7.00;94.60
38480;DHT22;62333;51.980;5.934;2023-01-30T00:42:53;7.00;94.60
38480;DHT22;62333;51.980;5.934;2023-01-30T00:45:39;7.10;94.60
38480;DHT22;62333;51.980;5.934;2023-01-30T00:48:24;7.00;94.60
38480;DHT22;62333;51.980;5.934;2023-01-30T00:50:50;7.10;94.70
38480;DHT22;62333;51.980;5.934;2023-01-30T00:53:16;7.10;94.70
38480;DHT22;62333;51.980;5.934;2023-01-30T00:55:42;7.10;94.80
38480;DHT22;62333;51.980;5.934;2023-01-30T00:58:09;7.20;94.90
38480;DHT22;62333;51.980;5.934;2023-01-30T01:00:35;7.10;94.90
38480;DHT22;62333;51.980;5.934;2023-01-30T01:03:01;7.10;94.90
38480;DHT22;62333;51.980;5.934;2023-01-30T01:05:27;7.10;95.00
38480;DHT22;62333;51.980;5.934;2023-01-30T01:07:53;7.20;95.00
38480;DHT22;62333;51.980;5.934;2023-01-30T01:10:19;7.20;95.10
38480;DHT22;62333;51.980;5.934;2023-01-30T01:12:45;7.20;95.10
38480;DHT22;62333;51.980;5.934;2023-01-30T01:15:12;7.20;95.20
38480;DHT22;62333;51.980;5.934;2023-01-30T01:17:39;7.20;95.10
38480;DHT22;62333;51.980;5.934;2023-01-30T01:20:07;7.30;95.20
38480;DHT22;62333;51.980;5.934;2023-01-30T01:22:33;7.30;95.30
38480;DHT22;62333;51.980;5.934;2023-01-30T01:24:58;7.30;95.30
38480;DHT22;62333;51.980;5.934;2023-01-30T01:27:24;7.30;95.40
38480;DHT22;62333;51.980;5.934;2023-01-30T01:29:50;7.30;95.40
38480;DHT22;62333;51.980;5.934;2023-01-30T01:32:15;7.30;95.40
38480;DHT22;62333;51.980;5.934;2023-01-30T01:34:41;7.30;95.40
38480;DHT22;62333;51.980;5.934;2023-01-30T01:37:06;7.40;95.40
38480;DHT22;62333;51.980;5.934;2023-01-30T01:39:32;7.40;95.50
38480;DHT22;62333;51.980;5.934;2023-01-30T01:42:17;7.40;95.50
38480;DHT22;62333;51.980;5.934;2023-01-30T01:47:30;7.40;95.70
38480;DHT22;62333;51.980;5.934;2023-01-30T01:49:57;7.40;95.70
38480;DHT22;62333;51.980;5.934;2023-01-30T01:52:23;7.40;95.70
38480;DHT22;62333;51.980;5.934;2023-01-30T01:54:56;7.40;95.70
38480;DHT22;62333;51.980;5.934;2023-01-30T01:57:43;7.40;95.80
38480;DHT22;62333;51.980;5.934;2023-01-30T02:00:13;7.40;95.80
38480;DHT22;62333;51.980;5.934;2023-01-30T02:02:48;7.40;95.80
38480;DHT22;62333;51.980;5.934;2023-01-30T02:05:16;7.40;95.70
38480;DHT22;62333;51.980;5.934;2023-01-30T02:07:57;7.40;95.70
38480;DHT22;62333;51.980;5.934;2023-01-30T02:13:17;7.50;95.80
38480;DHT22;62333;51.980;5.934;2023-01-30T02:15:43;7.40;95.90
38480;DHT22;62333;51.980;5.934;2023-01-30T02:18:10;7.50;96.00
38480;DHT22;62333;51.980;5.934;2023-01-30T02:32:09;7.60;96.00
38480;DHT22;62333;51.980;5.934;2023-01-30T02:35:02;7.60;96.10
38480;DHT22;62333;51.980;5.934;2023-01-30T02:37:54;7.60;96.20
38480;DHT22;62333;51.980;5.934;2023-01-30T02:45:51;7.70;96.40
38480;DHT22;62333;51.980;5.934;2023-01-30T02:48:41;7.60;96.40
38480;DHT22;62333;51.980;5.934;2023-01-30T02:51:32;7.70;96.50
38480;DHT22;62333;51.980;5.934;2023-01-30T02:53:58;7.70;96.50
38480;DHT22;62333;51.980;5.934;2023-01-30T02:56:24;7.70;96.60
38480;DHT22;62333;51.980;5.934;2023-01-30T02:59:01;7.70;96.70
38480;DHT22;62333;51.980;5.934;2023-01-30T03:04:27;7.80;96.80
38480;DHT22;62333;51.980;5.934;2023-01-30T03:07:57;7.80;96.90
38480;DHT22;62333;51.980;5.934;2023-01-30T03:15:27;7.90;97.00
38480;DHT22;62333;51.980;5.934;2023-01-30T03:17:56;7.90;97.20
38480;DHT22;62333;51.980;5.934;2023-01-30T03:20:22;7.90;97.20
38480;DHT22;62333;51.980;5.934;2023-01-30T03:22:48;7.90;97.20
38480;DHT22;62333;51.980;5.934;2023-01-30T03:25:18;7.90;97.20
38480;DHT22;62333;51.980;5.934;2023-01-30T03:27:44;7.90;97.40
38480;DHT22;62333;51.980;5.934;2023-01-30T03:30:11;8.00;97.50
38480;DHT22;62333;51.980;5.934;2023-01-30T03:32:37;8.00;97.50
38480;DHT22;62333;51.980;5.934;2023-01-30T03:35:02;8.00;97.50
38480;DHT22;62333;51.980;5.934;2023-01-30T03:37:28;8.00;97.50
38480;DHT22;62333;51.980;5.934;2023-01-30T03:39:54;8.00;97.50
38480;DHT22;62333;51.980;5.934;2023-01-30T03:42:20;8.00;97.60
38480;DHT22;62333;51.980;5.934;2023-01-30T03:44:45;8.10;97.60
38480;DHT22;62333;51.980;5.934;2023-01-30T03:47:11;8.10;97.70
38480;DHT22;62333;51.980;5.934;2023-01-30T03:49:36;8.10;97.70
38480;DHT22;62333;51.980;5.934;2023-01-30T03:52:02;8.10;97.70
38480;DHT22;62333;51.980;5.934;2023-01-30T03:54:28;8.10;97.70
38480;DHT22;62333;51.980;5.934;2023-01-30T03:56:53;8.10;97.80
38480;DHT22;62333;51.980;5.934;2023-01-30T03:59:19;8.10;97.80
38480;DHT22;62333;51.980;5.934;2023-01-30T04:01:45;8.10;97.80
38480;DHT22;62333;51.980;5.934;2023-01-30T04:04:10;8.10;97.80
38480;DHT22;62333;51.980;5.934;2023-01-30T04:06:36;8.20;97.80
38480;DHT22;62333;51.980;5.934;2023-01-30T04:09:01;8.10;97.80
38480;DHT22;62333;51.980;5.934;2023-01-30T04:11:27;8.20;97.90
38480;DHT22;62333;51.980;5.934;2023-01-30T04:13:53;8.20;97.80
38480;DHT22;62333;51.980;5.934;2023-01-30T04:16:21;8.20;97.80
38480;DHT22;62333;51.980;5.934;2023-01-30T04:18:47;8.20;97.80
38480;DHT22;62333;51.980;5.934;2023-01-30T04:21:13;8.20;97.80
38480;DHT22;62333;51.980;5.934;2023-01-30T04:23:39;8.30;97.80
38480;DHT22;62333;51.980;5.934;2023-01-30T04:26:05;8.20;97.80
38480;DHT22;62333;51.980;5.934;2023-01-30T04:28:32;8.30;97.80
38480;DHT22;62333;51.980;5.934;2023-01-30T04:30:57;8.30;97.80
38480;DHT22;62333;51.980;5.934;2023-01-30T04:33:23;8.30;97.80
38480;DHT22;62333;51.980;5.934;2023-01-30T04:38:18;8.30;97.70
38480;DHT22;62333;51.980;5.934;2023-01-30T04:40:51;8.30;98.00
38480;DHT22;62333;51.980;5.934;2023-01-30T04:43:18;8.40;97.70
38480;DHT22;62333;51.980;5.934;2023-01-30T04:45:48;8.40;97.70
38480;DHT22;62333;51.980;5.934;2023-01-30T04:48:14;8.40;97.70
38480;DHT22;62333;51.980;5.934;2023-01-30T04:50:42;8.40;97.70
38480;DHT22;62333;51.980;5.934;2023-01-30T04:53:08;8.40;97.70
38480;DHT22;62333;51.980;5.934;2023-01-30T04:55:34;8.40;97.60
38480;DHT22;62333;51.980;5.934;2023-01-30T04:58:00;8.40;97.70
38480;DHT22;62333;51.980;5.934;2023-01-30T05:00:26;8.40;97.70
38480;DHT22;62333;51.980;5.934;2023-01-30T05:02:52;8.40;97.70
38480;DHT22;62333;51.980;5.934;2023-01-30T05:05:23;8.40;97.70
38480;DHT22;62333;51.980;5.934;2023-01-30T05:07:49;8.40;97.70
38480;DHT22;62333;51.980;5.934;2023-01-30T05:10:15;8.40;97.70
38480;DHT22;62333;51.980;5.934;2023-01-30T05:12:41;8.40;97.70
38480;DHT22;62333;51.980;5.934;2023-01-30T05:15:07;8.40;97.60
38480;DHT22;62333;51.980;5.934;2023-01-30T05:17:34;8.50;97.60
38480;DHT22;62333;51.980;5.934;2023-01-30T05:19:59;8.50;97.60
38480;DHT22;62333;51.980;5.934;2023-01-30T05:22:25;8.50;97.60
38480;DHT22;62333;51.980;5.934;2023-01-30T05:24:51;8.50;97.50
38480;DHT22;62333;51.980;5.934;2023-01-30T05:27:17;8.50;97.50
38480;DHT22;62333;51.980;5.934;2023-01-30T05:29:43;8.50;97.50
38480;DHT22;62333;51.980;5.934;2023-01-30T05:32:13;8.50;97.40
38480;DHT22;62333;51.980;5.934;2023-01-30T05:34:39;8.60;97.40
38480;DHT22;62333;51.980;5.934;2023-01-30T05:37:05;8.60;97.40
38480;DHT22;62333;51.980;5.934;2023-01-30T05:39:30;8.60;97.30
38480;DHT22;62333;51.980;5.934;2023-01-30T05:41:56;8.60;97.30
38480;DHT22;62333;51.980;5.934;2023-01-30T05:44:22;8.60;97.20
38480;DHT22;62333;51.980;5.934;2023-01-30T05:46:47;8.60;97.20
38480;DHT22;62333;51.980;5.934;2023-01-30T05:49:13;8.70;97.10
38480;DHT22;62333;51.980;5.934;2023-01-30T05:51:39;8.70;97.00
38480;DHT22;62333;51.980;5.934;2023-01-30T05:54:04;8.70;97.00
38480;DHT22;62333;51.980;5.934;2023-01-30T05:56:30;8.70;96.90
38480;DHT22;62333;51.980;5.934;2023-01-30T05:58:58;8.70;96.70
38480;DHT22;62333;51.980;5.934;2023-01-30T06:01:26;8.70;96.60
38480;DHT22;62333;51.980;5.934;2023-01-30T06:03:52;8.70;96.50
38480;DHT22;62333;51.980;5.934;2023-01-30T06:06:18;8.80;96.40
38480;DHT22;62333;51.980;5.934;2023-01-30T06:08:44;8.80;96.30
38480;DHT22;62333;51.980;5.934;2023-01-30T06:11:12;8.80;96.00
38480;DHT22;62333;51.980;5.934;2023-01-30T06:13:38;8.70;95.80
38480;DHT22;62333;51.980;5.934;2023-01-30T06:16:09;8.70;95.50
38480;DHT22;62333;51.980;5.934;2023-01-30T06:18:36;8.70;95.20
38480;DHT22;62333;51.980;5.934;2023-01-30T06:21:03;8.70;94.80
38480;DHT22;62333;51.980;5.934;2023-01-30T06:23:29;8.70;94.40
38480;DHT22;62333;51.980;5.934;2023-01-30T06:25:54;8.70;94.20
38480;DHT22;62333;51.980;5.934;2023-01-30T06:28:21;8.70;94.10
38480;DHT22;62333;51.980;5.934;2023-01-30T06:30:47;8.60;93.90
38480;DHT22;62333;51.980;5.934;2023-01-30T06:33:13;8.60;93.80
38480;DHT22;62333;51.980;5.934;2023-01-30T06:35:40;8.60;93.80
38480;DHT22;62333;51.980;5.934;2023-01-30T06:38:07;8.60;93.70
38480;DHT22;62333;51.980;5.934;2023-01-30T06:40:46;8.60;93.60
38480;DHT22;62333;51.980;5.934;2023-01-30T06:43:13;8.60;93.20
38480;DHT22;62333;51.980;5.934;2023-01-30T06:45:39;8.60;92.90
38480;DHT22;62333;51.980;5.934;2023-01-30T06:48:05;8.60;92.90
38480;DHT22;62333;51.980;5.934;2023-01-30T06:50:31;8.60;92.80
38480;DHT22;62333;51.980;5.934;2023-01-30T06:52:57;8.50;92.70
38480;DHT22;62333;51.980;5.934;2023-01-30T06:55:24;8.50;92.60
38480;DHT22;62333;51.980;5.934;2023-01-30T06:58:10;8.50;92.50
38480;DHT22;62333;51.980;5.934;2023-01-30T07:00:38;8.50;92.60
38480;DHT22;62333;51.980;5.934;2023-01-30T07:03:04;8.40;92.60
38480;DHT22;62333;51.980;5.934;2023-01-30T07:05:30;8.40;92.60
38480;DHT22;62333;51.980;5.934;2023-01-30T07:07:55;8.40;92.60
38480;DHT22;62333;51.980;5.934;2023-01-30T07:10:22;8.40;92.50
38480;DHT22;62333;51.980;5.934;2023-01-30T07:12:47;8.40;92.50
38480;DHT22;62333;51.980;5.934;2023-01-30T07:15:13;8.40;92.40
38480;DHT22;62333;51.980;5.934;2023-01-30T07:17:40;8.30;92.30
38480;DHT22;62333;51.980;5.934;2023-01-30T07:20:06;8.30;92.20
38480;DHT22;62333;51.980;5.934;2023-01-30T07:22:32;8.30;92.10
38480;DHT22;62333;51.980;5.934;2023-01-30T07:24:58;8.30;92.10
38480;DHT22;62333;51.980;5.934;2023-01-30T07:27:23;8.30;92.00
38480;DHT22;62333;51.980;5.934;2023-01-30T07:29:49;8.20;91.90
38480;DHT22;62333;51.980;5.934;2023-01-30T07:32:17;8.20;91.90
38480;DHT22;62333;51.980;5.934;2023-01-30T07:34:46;8.20;91.90
38480;DHT22;62333;51.980;5.934;2023-01-30T07:37:12;8.20;91.70
38480;DHT22;62333;51.980;5.934;2023-01-30T07:39:38;8.10;91.60
38480;DHT22;62333;51.980;5.934;2023-01-30T07:42:04;8.10;91.70
38480;DHT22;62333;51.980;5.934;2023-01-30T07:44:30;8.10;91.60
38480;DHT22;62333;51.980;5.934;2023-01-30T07:46:55;8.10;91.60
38480;DHT22;62333;51.980;5.934;2023-01-30T07:49:21;8.10;91.60
38480;DHT22;62333;51.980;5.934;2023-01-30T07:51:47;8.10;91.60
38480;DHT22;62333;51.980;5.934;2023-01-30T07:54:12;8.10;91.60
38480;DHT22;62333;51.980;5.934;2023-01-30T07:56:38;8.10;91.50
38480;DHT22;62333;51.980;5.934;2023-01-30T07:59:04;8.10;91.40
38480;DHT22;62333;51.980;5.934;2023-01-30T08:01:30;8.10;91.30
38480;DHT22;62333;51.980;5.934;2023-01-30T08:03:57;8.10;91.10
38480;DHT22;62333;51.980;5.934;2023-01-30T08:06:22;8.10;91.10
38480;DHT22;62333;51.980;5.934;2023-01-30T08:08:48;8.10;91.00
38480;DHT22;62333;51.980;5.934;2023-01-30T08:11:14;8.10;91.00
38480;DHT22;62333;51.980;5.934;2023-01-30T08:13:40;8.10;90.90
38480;DHT22;62333;51.980;5.934;2023-01-30T08:16:06;8.10;90.80
38480;DHT22;62333;51.980;5.934;2023-01-30T08:18:33;8.20;90.80
38480;DHT22;62333;51.980;5.934;2023-01-30T08:20:59;8.20;90.60
38480;DHT22;62333;51.980;5.934;2023-01-30T08:23:25;8.20;90.40
38480;DHT22;62333;51.980;5.934;2023-01-30T08:25:59;8.30;90.40
38480;DHT22;62333;51.980;5.934;2023-01-30T08:28:25;8.40;90.20
38480;DHT22;62333;51.980;5.934;2023-01-30T08:30:51;8.40;89.70
38480;DHT22;62333;51.980;5.934;2023-01-30T08:33:19;8.50;89.40
38480;DHT22;62333;51.980;5.934;2023-01-30T08:35:45;8.60;89.10
38480;DHT22;62333;51.980;5.934;2023-01-30T08:38:11;8.60;88.70
38480;DHT22;62333;51.980;5.934;2023-01-30T08:40:37;8.70;88.30
38480;DHT22;62333;51.980;5.934;2023-01-30T08:43:03;8.80;88.00
38480;DHT22;62333;51.980;5.934;2023-01-30T08:45:29;8.90;87.60
38480;DHT22;62333;51.980;5.934;2023-01-30T08:48:03;9.00;87.40
38480;DHT22;62333;51.980;5.934;2023-01-30T08:50:31;9.10;87.00
38480;DHT22;62333;51.980;5.934;2023-01-30T08:53:01;9.20;86.60
38480;DHT22;62333;51.980;5.934;2023-01-30T08:55:27;9.30;86.00
38480;DHT22;62333;51.980;5.934;2023-01-30T08:57:55;9.30;85.20
38480;DHT22;62333;51.980;5.934;2023-01-30T09:00:21;9.40;85.00
38480;DHT22;62333;51.980;5.934;2023-01-30T09:02:46;9.50;84.50
38480;DHT22;62333;51.980;5.934;2023-01-30T09:05:12;9.60;84.20
38480;DHT22;62333;51.980;5.934;2023-01-30T09:07:38;9.60;83.90
38480;DHT22;62333;51.980;5.934;2023-01-30T09:10:04;9.70;83.40
38480;DHT22;62333;51.980;5.934;2023-01-30T09:12:30;9.70;83.30
38480;DHT22;62333;51.980;5.934;2023-01-30T09:14:55;9.80;82.30
38480;DHT22;62333;51.980;5.934;2023-01-30T09:17:23;9.80;82.10
38480;DHT22;62333;51.980;5.934;2023-01-30T09:19:49;9.80;81.90
38480;DHT22;62333;51.980;5.934;2023-01-30T09:22:15;9.80;82.10
38480;DHT22;62333;51.980;5.934;2023-01-30T09:24:41;9.80;82.20
38480;DHT22;62333;51.980;5.934;2023-01-30T09:27:07;9.80;81.50
38480;DHT22;62333;51.980;5.934;2023-01-30T09:29:33;9.70;81.20
38480;DHT22;62333;51.980;5.934;2023-01-30T09:31:58;9.70;80.90
38480;DHT22;62333;51.980;5.934;2023-01-30T09:34:25;9.60;81.20
38480;DHT22;62333;51.980;5.934;2023-01-30T09:36:56;9.60;81.30
38480;DHT22;62333;51.980;5.934;2023-01-30T09:39:25;9.60;81.10
38480;DHT22;62333;51.980;5.934;2023-01-30T09:42:01;9.60;81.20
38480;DHT22;62333;51.980;5.934;2023-01-30T09:47:08;9.50;81.50
38480;DHT22;62333;51.980;5.934;2023-01-30T09:52:29;9.50;81.90
38480;DHT22;62333;51.980;5.934;2023-01-30T09:55:17;9.50;81.80
38480;DHT22;62333;51.980;5.934;2023-01-30T09:57:46;9.50;81.80
38480;DHT22;62333;51.980;5.934;2023-01-30T10:05:25;9.40;81.80
38480;DHT22;62333;51.980;5.934;2023-01-30T10:10:47;9.40;81.80
38480;DHT22;62333;51.980;5.934;2023-01-30T10:16:12;9.50;81.60
38480;DHT22;62333;51.980;5.934;2023-01-30T10:21:36;9.50;82.00
38480;DHT22;62333;51.980;5.934;2023-01-30T10:24:18;9.60;82.20
38480;DHT22;62333;51.980;5.934;2023-01-30T10:26:47;9.60;81.60
38480;DHT22;62333;51.980;5.934;2023-01-30T10:29:37;9.60;81.50
38480;DHT22;62333;51.980;5.934;2023-01-30T10:32:46;9.70;81.60
38480;DHT22;62333;51.980;5.934;2023-01-30T10:35:24;9.60;81.30
38480;DHT22;62333;51.980;5.934;2023-01-30T10:38:19;9.60;81.60
38480;DHT22;62333;51.980;5.934;2023-01-30T10:41:44;9.60;81.70
38480;DHT22;62333;51.980;5.934;2023-01-30T10:43:59;9.60;81.70
38480;DHT22;62333;51.980;5.934;2023-01-30T10:49:17;9.50;81.80
38480;DHT22;62333;51.980;5.934;2023-01-30T11:00:03;9.50;82.10
38480;DHT22;62333;51.980;5.934;2023-01-30T11:03:12;9.60;82.10
38480;DHT22;62333;51.980;5.934;2023-01-30T11:05:49;9.60;81.70
38480;DHT22;62333;51.980;5.934;2023-01-30T11:08:19;9.60;81.70
38480;DHT22;62333;51.980;5.934;2023-01-30T11:10:45;9.60;81.30
38480;DHT22;62333;51.980;5.934;2023-01-30T11:13:21;9.70;81.20
38480;DHT22;62333;51.980;5.934;2023-01-30T11:15:50;9.70;81.30
38480;DHT22;62333;51.980;5.934;2023-01-30T11:18:18;9.70;80.60
38480;DHT22;62333;51.980;5.934;2023-01-30T11:21:03;9.80;80.70
38480;DHT22;62333;51.980;5.934;2023-01-30T11:23:34;9.80;80.70
38480;DHT22;62333;51.980;5.934;2023-01-30T11:26:01;9.90;80.70
38480;DHT22;62333;51.980;5.934;2023-01-30T11:28:27;10.00;80.40
38480;DHT22;62333;51.980;5.934;2023-01-30T11:30:59;10.20;80.20
38480;DHT22;62333;51.980;5.934;2023-01-30T11:33:36;10.20;79.30
38480;DHT22;62333;51.980;5.934;2023-01-30T11:36:08;10.30;79.00
38480;DHT22;62333;51.980;5.934;2023-01-30T11:39:00;10.40;78.50
38480;DHT22;62333;51.980;5.934;2023-01-30T11:41:27;10.50;78.20
38480;DHT22;62333;51.980;5.934;2023-01-30T11:44:02;10.60;77.20
38480;DHT22;62333;51.980;5.934;2023-01-30T11:46:32;10.60;76.70
38480;DHT22;62333;51.980;5.934;2023-01-30T11:49:11;10.70;76.90
38480;DHT22;62333;51.980;5.934;2023-01-30T11:51:39;10.70;75.90
38480;DHT22;62333;51.980;5.934;2023-01-30T11:54:10;10.80;75.40
38480;DHT22;62333;51.980;5.934;2023-01-30T11:59:16;10.90;74.80
38480;DHT22;62333;51.980;5.934;2023-01-30T12:01:45;11.00;73.90
38480;DHT22;62333;51.980;5.934;2023-01-30T12:04:11;11.00;73.20
38480;DHT22;62333;51.980;5.934;2023-01-30T12:06:40;11.00;73.40
38480;DHT22;62333;51.980;5.934;2023-01-30T12:09:35;11.10;73.60
38480;DHT22;62333;51.980;5.934;2023-01-30T12:12:07;11.20;73.70
38480;DHT22;62333;51.980;5.934;2023-01-30T12:14:48;11.10;72.60
38480;DHT22;62333;51.980;5.934;2023-01-30T12:17:34;11.10;71.90
38480;DHT22;62333;51.980;5.934;2023-01-30T12:20:27;11.10;72.00
38480;DHT22;62333;51.980;5.934;2023-01-30T12:23:01;11.20;71.70
38480;DHT22;62333;51.980;5.934;2023-01-30T12:26:39;11.10;71.10
38480;DHT22;62333;51.980;5.934;2023-01-30T12:28:59;11.10;70.40
38480;DHT22;62333;51.980;5.934;2023-01-30T12:34:02;11.00;70.20
38480;DHT22;62333;51.980;5.934;2023-01-30T12:45:24;10.80;71.60
38480;DHT22;62333;51.980;5.934;2023-01-30T12:53:42;10.80;71.00
38480;DHT22;62333;51.980;5.934;2023-01-30T13:02:30;10.80;70.20
38480;DHT22;62333;51.980;5.934;2023-01-30T13:15:45;10.90;70.70
38480;DHT22;62333;51.980;5.934;2023-01-30T13:18:17;10.80;70.10
38480;DHT22;62333;51.980;5.934;2023-01-30T13:21:04;10.70;70.20
38480;DHT22;62333;51.980;5.934;2023-01-30T13:26:20;10.70;70.80
38480;DHT22;62333;51.980;5.934;2023-01-30T13:28:55;10.70;71.00
38480;DHT22;62333;51.980;5.934;2023-01-30T13:31:25;10.60;70.90
38480;DHT22;62333;51.980;5.934;2023-01-30T13:34:05;10.60;71.00
38480;DHT22;62333;51.980;5.934;2023-01-30T13:36:42;10.60;71.30
38480;DHT22;62333;51.980;5.934;2023-01-30T13:39:15;10.60;71.60
38480;DHT22;62333;51.980;5.934;2023-01-30T13:41:47;10.50;71.60
38480;DHT22;62333;51.980;5.934;2023-01-30T13:44:20;10.50;71.80
38480;DHT22;62333;51.980;5.934;2023-01-30T13:46:47;10.50;71.80
38480;DHT22;62333;51.980;5.934;2023-01-30T13:49:39;10.50;72.00
38480;DHT22;62333;51.980;5.934;2023-01-30T13:52:08;10.50;72.00
38480;DHT22;62333;51.980;5.934;2023-01-30T13:54:51;10.50;72.10
38480;DHT22;62333;51.980;5.934;2023-01-30T13:57:46;10.50;72.20
38480;DHT22;62333;51.980;5.934;2023-01-30T14:11:03;10.50;72.60
38480;DHT22;62333;51.980;5.934;2023-01-30T14:13:29;10.40;72.60
38480;DHT22;62333;51.980;5.934;2023-01-30T14:16:00;10.40;72.70
38480;DHT22;62333;51.980;5.934;2023-01-30T14:18:27;10.40;72.80
38480;DHT22;62333;51.980;5.934;2023-01-30T14:21:22;10.40;72.70
38480;DHT22;62333;51.980;5.934;2023-01-30T14:23:57;10.40;72.90
38480;DHT22;62333;51.980;5.934;2023-01-30T14:29:08;10.40;72.50
38480;DHT22;62333;51.980;5.934;2023-01-30T14:31:48;10.40;72.70
38480;DHT22;62333;51.980;5.934;2023-01-30T14:35:18;10.40;72.80
38480;DHT22;62333;51.980;5.934;2023-01-30T14:45:59;10.50;73.20
38480;DHT22;62333;51.980;5.934;2023-01-30T14:51:35;10.40;73.30
38480;DHT22;62333;51.980;5.934;2023-01-30T14:54:27;10.40;73.50
38480;DHT22;62333;51.980;5.934;2023-01-30T14:57:18;10.40;73.60
38480;DHT22;62333;51.980;5.934;2023-01-30T14:59:51;10.40;73.60
38480;DHT22;62333;51.980;5.934;2023-01-30T15:02:27;10.40;73.70
38480;DHT22;62333;51.980;5.934;2023-01-30T15:05:08;10.40;73.90
38480;DHT22;62333;51.980;5.934;2023-01-30T15:13:08;10.30;74.10
38480;DHT22;62333;51.980;5.934;2023-01-30T15:26:45;10.20;74.80
38480;DHT22;62333;51.980;5.934;2023-01-30T15:31:59;10.20;75.00
38480;DHT22;62333;51.980;5.934;2023-01-30T15:34:30;10.20;75.00
38480;DHT22;62333;51.980;5.934;2023-01-30T15:36:57;10.20;75.00
38480;DHT22;62333;51.980;5.934;2023-01-30T15:39:25;10.20;75.00
38480;DHT22;62333;51.980;5.934;2023-01-30T15:41:52;10.10;75.00
38480;DHT22;62333;51.980;5.934;2023-01-30T15:47:20;10.10;75.10
38480;DHT22;62333;51.980;5.934;2023-01-30T15:50:00;10.10;75.30
38480;DHT22;62333;51.980;5.934;2023-01-30T15:52:43;10.10;75.30
38480;DHT22;62333;51.980;5.934;2023-01-30T15:55:25;10.10;75.30
38480;DHT22;62333;51.980;5.934;2023-01-30T15:57:55;10.10;75.30
38480;DHT22;62333;51.980;5.934;2023-01-30T16:00:34;10.10;75.40
38480;DHT22;62333;51.980;5.934;2023-01-30T16:03:02;10.10;75.40
38480;DHT22;62333;51.980;5.934;2023-01-30T16:05:29;10.00;75.20
38480;DHT22;62333;51.980;5.934;2023-01-30T16:07:55;10.00;75.40
38480;DHT22;62333;51.980;5.934;2023-01-30T16:10:25;10.00;75.60
38480;DHT22;62333;51.980;5.934;2023-01-30T16:12:53;10.00;75.70
38480;DHT22;62333;51.980;5.934;2023-01-30T16:18:20;9.90;76.30
38480;DHT22;62333;51.980;5.934;2023-01-30T16:20:54;9.90;75.80
38480;DHT22;62333;51.980;5.934;2023-01-30T16:23:27;9.90;75.90
38480;DHT22;62333;51.980;5.934;2023-01-30T16:25:53;9.90;76.00
38480;DHT22;62333;51.980;5.934;2023-01-30T16:28:24;9.90;76.00
38480;DHT22;62333;51.980;5.934;2023-01-30T16:30:59;9.90;76.00
38480;DHT22;62333;51.980;5.934;2023-01-30T16:33:25;9.90;76.10
38480;DHT22;62333;51.980;5.934;2023-01-30T16:35:51;9.90;76.00
38480;DHT22;62333;51.980;5.934;2023-01-30T16:38:38;9.80;76.60
38480;DHT22;62333;51.980;5.934;2023-01-30T16:41:35;9.80;76.00
38480;DHT22;62333;51.980;5.934;2023-01-30T16:44:08;9.80;76.10
38480;DHT22;62333;51.980;5.934;2023-01-30T16:49:16;9.70;76.30
38480;DHT22;62333;51.980;5.934;2023-01-30T16:51:43;9.70;76.50
38480;DHT22;62333;51.980;5.934;2023-01-30T16:54:20;9.60;76.70
38480;DHT22;62333;51.980;5.934;2023-01-30T16:56:51;9.60;77.00
38480;DHT22;62333;51.980;5.934;2023-01-30T16:59:28;9.60;77.30
38480;DHT22;62333;51.980;5.934;2023-01-30T17:01:54;9.50;77.40
38480;DHT22;62333;51.980;5.934;2023-01-30T17:04:22;9.50;77.60
38480;DHT22;62333;51.980;5.934;2023-01-30T17:07:00;9.50;77.90
38480;DHT22;62333;51.980;5.934;2023-01-30T17:17:37;9.40;78.80
38480;DHT22;62333;51.980;5.934;2023-01-30T17:20:04;9.30;79.00
38480;DHT22;62333;51.980;5.934;2023-01-30T17:22:30;9.30;79.10
38480;DHT22;62333;51.980;5.934;2023-01-30T17:25:23;9.20;79.10
38480;DHT22;62333;51.980;5.934;2023-01-30T17:27:46;9.30;79.30
38480;DHT22;62333;51.980;5.934;2023-01-30T17:30:16;9.20;79.40
38480;DHT22;62333;51.980;5.934;2023-01-30T17:32:42;9.20;79.50
38480;DHT22;62333;51.980;5.934;2023-01-30T17:35:10;9.20;79.50
38480;DHT22;62333;51.980;5.934;2023-01-30T17:37:36;9.20;79.60
38480;DHT22;62333;51.980;5.934;2023-01-30T17:40:03;9.20;79.70
38480;DHT22;62333;51.980;5.934;2023-01-30T17:42:35;9.20;79.70
38480;DHT22;62333;51.980;5.934;2023-01-30T17:45:00;9.20;79.80
38480;DHT22;62333;51.980;5.934;2023-01-30T17:47:27;9.20;79.90
38480;DHT22;62333;51.980;5.934;2023-01-30T17:49:53;9.10;79.90
38480;DHT22;62333;51.980;5.934;2023-01-30T17:52:20;9.10;80.00
38480;DHT22;62333;51.980;5.934;2023-01-30T17:54:45;9.10;80.00
38480;DHT22;62333;51.980;5.934;2023-01-30T17:57:11;9.10;80.00
38480;DHT22;62333;51.980;5.934;2023-01-30T17:59:40;9.10;80.00
38480;DHT22;62333;51.980;5.934;2023-01-30T18:02:08;9.10;80.10
38480;DHT22;62333;51.980;5.934;2023-01-30T18:04:33;9.00;80.10
38480;DHT22;62333;51.980;5.934;2023-01-30T18:07:01;9.00;80.10
38480;DHT22;62333;51.980;5.934;2023-01-30T18:09:29;9.00;80.20
38480;DHT22;62333;51.980;5.934;2023-01-30T18:11:55;9.00;80.30
38480;DHT22;62333;51.980;5.934;2023-01-30T18:14:20;8.90;80.30
38480;DHT22;62333;51.980;5.934;2023-01-30T18:16:46;8.90;80.40
38480;DHT22;62333;51.980;5.934;2023-01-30T18:19:14;8.90;80.40
38480;DHT22;62333;51.980;5.934;2023-01-30T18:21:40;8.90;80.50
38480;DHT22;62333;51.980;5.934;2023-01-30T18:24:10;8.80;80.50
38480;DHT22;62333;51.980;5.934;2023-01-30T18:26:35;8.80;80.50
38480;DHT22;62333;51.980;5.934;2023-01-30T18:29:01;8.80;80.60
38480;DHT22;62333;51.980;5.934;2023-01-30T18:31:30;8.80;80.60
38480;DHT22;62333;51.980;5.934;2023-01-30T18:33:56;8.80;80.70
38480;DHT22;62333;51.980;5.934;2023-01-30T18:36:22;8.70;80.70
38480;DHT22;62333;51.980;5.934;2023-01-30T18:38:48;8.70;80.80
38480;DHT22;62333;51.980;5.934;2023-01-30T18:41:16;8.70;81.00
38480;DHT22;62333;51.980;5.934;2023-01-30T18:43:43;8.60;81.10
38480;DHT22;62333;51.980;5.934;2023-01-30T18:46:14;8.60;81.20